Time;durP1;ratioP1;P1;durP2;ratioP2;P2;SDS_P1;SDS_P2;PMS_P1;PMS_P2;Temp;Humidity;BMP_temperature;BMP_pressure;BME280_temperature;BME280_humidity;BME280_pressure;Samples;Min_cycle;Max_cycle;Signal;HPM_P1;HPM_P2
2023/07/17 00:02:24;;;;;;;9.10;3.00;;;17.00;99.90;;;;;;6304913;22;20022;-85
2023/07/17 00:04:50;;;;;;;9.70;3.50;;;17.00;99.90;;;;;;6278099;22;20392;-85
2023/07/17 00:07:16;;;;;;;9.55;2.70;;;17.00;99.90;;;;;;6305045;22;20490;-84
2023/07/17 00:09:43;;;;;;;10.73;3.13;;;17.00;99.90;;;;;;6251464;22;20055;-85
2023/07/17 00:12:09;;;;;;;10.13;3.80;;;17.00;99.90;;;;;;6251399;22;20524;-84
2023/07/17 00:14:37;;;;;;;9.43;3.03;;;17.00;99.90;;;;;;6277572;22;20438;-85
2023/07/17 00:17:03;;;;;;;9.15;2.95;;;16.90;99.90;;;;;;6277505;22;20030;-84
2023/07/17 00:19:29;;;;;;;9.30;3.42;;;17.00;99.90;;;;;;6305087;22;20015;-85
2023/07/17 00:21:55;;;;;;;9.07;3.22;;;17.00;99.90;;;;;;6277447;22;20015;-84
2023/07/17 00:24:20;;;;;;;10.13;2.83;;;16.90;99.90;;;;;;6276649;22;20191;-84
2023/07/17 00:26:46;;;;;;;9.48;3.40;;;17.00;99.90;;;;;;6276290;22;20045;-85
2023/07/17 00:29:28;;;;;;;10.43;3.40;;;16.90;99.90;;;;;;6276107;22;20717;-84
2023/07/17 00:31:54;;;;;;;10.02;2.97;;;16.90;99.90;;;;;;6304463;22;20011;-84
2023/07/17 00:34:21;;;;;;;12.20;3.45;;;16.90;99.90;;;;;;6277373;22;20015;-84
2023/07/17 00:36:47;;;;;;;13.88;4.00;;;16.90;99.90;;;;;;6277619;22;20015;-84
2023/07/17 00:39:14;;;;;;;10.55;3.13;;;16.90;99.90;;;;;;6250072;22;20567;-84
2023/07/17 00:41:40;;;;;;;5.82;2.78;;;16.90;99.90;;;;;;6251690;22;20007;-84
2023/07/17 00:44:06;;;;;;;11.30;3.05;;;16.90;99.90;;;;;;6277026;22;20041;-84
2023/07/17 00:46:34;;;;;;;7.45;3.03;;;16.80;99.90;;;;;;6306317;22;20062;-84
2023/07/17 00:49:01;;;;;;;11.40;3.10;;;16.80;99.90;;;;;;6276957;22;20015;-83
2023/07/17 00:51:27;;;;;;;8.57;3.35;;;16.80;99.90;;;;;;6253123;22;20042;-84
2023/07/17 00:53:54;;;;;;;10.02;3.17;;;16.70;99.90;;;;;;6276487;22;20023;-84
2023/07/17 00:56:20;;;;;;;10.32;3.38;;;16.70;99.90;;;;;;6304505;22;20029;-84
2023/07/17 00:58:46;;;;;;;8.32;3.60;;;16.70;99.90;;;;;;6275031;22;20011;-84
2023/07/17 01:01:12;;;;;;;13.40;3.10;;;16.70;99.90;;;;;;6275658;22;20394;-84
2023/07/17 01:03:39;;;;;;;8.27;3.30;;;16.70;99.90;;;;;;6276572;22;20426;-84
2023/07/17 01:06:04;;;;;;;8.88;3.00;;;16.70;99.90;;;;;;6302931;22;20011;-84
2023/07/17 01:08:31;;;;;;;9.25;3.20;;;16.70;99.90;;;;;;6276624;22;20051;-84
2023/07/17 01:10:57;;;;;;;13.93;3.13;;;16.70;99.90;;;;;;6305281;22;20039;-84
2023/07/17 01:13:23;;;;;;;10.10;3.40;;;16.70;99.90;;;;;;6277979;22;20041;-84
2023/07/17 01:15:49;;;;;;;10.60;3.00;;;16.70;99.90;;;;;;6305836;22;20011;-84
2023/07/17 01:18:14;;;;;;;11.82;3.92;;;16.60;99.90;;;;;;6278398;22;20018;-84
2023/07/17 01:20:41;;;;;;;12.82;3.58;;;16.60;99.90;;;;;;6306397;22;20033;-84
2023/07/17 01:23:07;;;;;;;10.60;3.38;;;16.60;99.90;;;;;;6304565;22;20320;-84
2023/07/17 01:25:36;;;;;;;12.88;3.50;;;16.60;99.90;;;;;;6277014;22;20125;-81
2023/07/17 01:28:01;;;;;;;15.70;3.20;;;16.60;99.90;;;;;;6276926;22;20023;-84
2023/07/17 01:30:27;;;;;;;10.23;3.80;;;16.60;99.90;;;;;;6275857;22;20838;-84
2023/07/17 01:32:53;;;;;;;11.30;3.83;;;16.60;99.90;;;;;;6248479;22;20466;-84
2023/07/17 01:35:21;;;;;;;9.05;3.80;;;16.50;99.90;;;;;;6301155;22;20022;-84
2023/07/17 01:37:46;;;;;;;13.18;3.90;;;16.50;99.90;;;;;;6247351;22;20042;-84
2023/07/17 01:40:15;;;;;;;10.65;3.80;;;16.50;99.90;;;;;;6273630;22;20348;-84
2023/07/17 01:42:40;;;;;;;9.35;3.30;;;16.40;99.90;;;;;;6273891;22;20072;-84
2023/07/17 01:45:07;;;;;;;12.07;3.25;;;16.40;99.90;;;;;;6301171;22;20011;-83
2023/07/17 01:47:32;;;;;;;10.05;3.13;;;16.40;99.90;;;;;;6303562;22;20090;-84
2023/07/17 01:49:58;;;;;;;12.00;3.88;;;16.40;99.90;;;;;;6303349;22;20058;-83
2023/07/17 01:52:27;;;;;;;9.52;3.42;;;16.40;99.90;;;;;;6302441;22;20082;-84
2023/07/17 01:54:53;;;;;;;9.35;3.10;;;16.30;99.90;;;;;;6302881;22;20449;-84
2023/07/17 01:57:18;;;;;;;9.38;2.58;;;16.30;99.90;;;;;;6303538;22;20022;-84
2023/07/17 01:59:47;;;;;;;9.30;2.75;;;16.20;99.90;;;;;;6275705;22;20019;-83
2023/07/17 02:02:13;;;;;;;7.13;2.35;;;16.10;99.90;;;;;;6274858;22;20026;-84
2023/07/17 02:04:38;;;;;;;6.53;2.10;;;16.20;99.90;;;;;;6303427;22;20011;-83
2023/07/17 02:07:04;;;;;;;8.50;2.13;;;16.10;99.90;;;;;;6274828;22;20023;-84
2023/07/17 02:09:30;;;;;;;6.35;1.90;;;16.10;99.90;;;;;;6303415;22;20007;-84
2023/07/17 02:11:56;;;;;;;10.63;2.28;;;16.10;99.90;;;;;;6302762;22;20022;-83
2023/07/17 02:14:21;;;;;;;9.27;2.42;;;16.10;99.90;;;;;;6303078;22;20011;-84
2023/07/17 02:16:47;;;;;;;6.18;1.77;;;16.00;99.90;;;;;;6275466;22;20042;-84
2023/07/17 02:19:14;;;;;;;7.18;2.33;;;16.00;99.90;;;;;;6275406;22;20016;-83
2023/07/17 02:21:39;;;;;;;6.30;1.80;;;16.00;99.90;;;;;;6275216;22;20485;-84
2023/07/17 02:24:05;;;;;;;7.13;2.15;;;16.00;99.90;;;;;;6273679;22;20011;-84
2023/07/17 02:26:31;;;;;;;4.53;2.00;;;16.00;99.90;;;;;;6248225;22;20016;-84
2023/07/17 02:28:56;;;;;;;6.10;1.77;;;15.90;99.90;;;;;;6272826;22;20015;-84
2023/07/17 02:31:22;;;;;;;7.28;2.00;;;15.90;99.90;;;;;;6301298;22;20007;-84
2023/07/17 02:33:48;;;;;;;4.95;2.08;;;15.90;99.90;;;;;;6303445;22;20007;-83
2023/07/17 02:36:14;;;;;;;6.55;1.80;;;15.80;99.90;;;;;;6301947;22;20077;-83
2023/07/17 02:38:39;;;;;;;7.07;1.70;;;15.80;99.90;;;;;;6302970;22;20333;-83
2023/07/17 02:41:12;;;;;;;8.07;2.25;;;15.80;99.90;;;;;;6274858;22;20637;-83
2023/07/17 02:43:40;;;;;;;8.48;1.88;;;15.80;99.90;;;;;;6274926;22;20444;-83
2023/07/17 02:46:06;;;;;;;7.93;2.40;;;15.80;99.90;;;;;;6275405;22;20015;-84
2023/07/17 02:48:32;;;;;;;9.35;2.53;;;15.70;99.90;;;;;;6302786;22;20072;-84
2023/07/17 02:50:58;;;;;;;5.78;1.65;;;15.70;99.90;;;;;;6301848;22;20078;-83
2023/07/17 02:53:26;;;;;;;6.25;2.00;;;15.70;99.90;;;;;;6275047;22;20026;-84
2023/07/17 02:55:52;;;;;;;9.68;2.30;;;15.70;99.90;;;;;;6275334;22;20023;-84
2023/07/17 02:58:21;;;;;;;8.65;1.80;;;15.70;99.90;;;;;;6300666;22;20076;-83
2023/07/17 03:00:46;;;;;;;8.13;2.50;;;15.70;99.90;;;;;;6274259;22;20254;-84
2023/07/17 03:03:14;;;;;;;10.05;2.15;;;15.70;99.90;;;;;;6273402;22;20019;-84
2023/07/17 03:05:40;;;;;;;7.47;2.20;;;15.70;99.90;;;;;;6272759;22;20004;-84
2023/07/17 03:08:06;;;;;;;7.38;2.28;;;15.70;99.90;;;;;;6247373;22;20048;-84
2023/07/17 03:10:32;;;;;;;6.32;2.30;;;15.70;99.90;;;;;;6273008;22;20471;-84
2023/07/17 03:12:57;;;;;;;7.95;1.98;;;15.70;99.90;;;;;;6272696;22;20029;-84
2023/07/17 03:15:23;;;;;;;9.32;2.40;;;15.70;99.90;;;;;;6273767;22;20335;-84
2023/07/17 03:17:51;;;;;;;7.00;1.80;;;15.60;99.90;;;;;;6274841;22;20345;-84
2023/07/17 03:20:18;;;;;;;7.80;2.15;;;15.60;99.90;;;;;;6302537;22;20022;-84
2023/07/17 03:22:43;;;;;;;8.75;2.13;;;15.60;99.90;;;;;;6302901;22;20052;-84
2023/07/17 03:25:09;;;;;;;8.15;2.25;;;15.70;99.90;;;;;;6274756;22;20015;-84
2023/07/17 03:27:35;;;;;;;7.47;2.00;;;15.60;99.90;;;;;;6275219;22;20084;-84
2023/07/17 03:30:01;;;;;;;8.48;2.20;;;15.60;99.90;;;;;;6300111;22;20393;-84
2023/07/17 03:32:31;;;;;;;8.30;2.10;;;15.60;99.90;;;;;;6302955;22;20007;-84
2023/07/17 03:34:57;;;;;;;9.23;2.33;;;15.60;99.90;;;;;;6301657;22;20043;-85
2023/07/17 03:37:22;;;;;;;10.50;2.30;;;15.60;99.90;;;;;;6303052;22;20078;-84
2023/07/17 03:39:48;;;;;;;6.50;2.33;;;15.60;99.90;;;;;;6303020;22;20100;-84
2023/07/17 03:42:14;;;;;;;8.75;2.40;;;15.60;99.90;;;;;;6302412;22;20053;-84
2023/07/17 03:44:40;;;;;;;7.82;2.15;;;15.60;99.90;;;;;;6275642;22;20030;-84
2023/07/17 03:47:06;;;;;;;7.85;2.22;;;15.50;99.90;;;;;;6275581;22;20020;-84
2023/07/17 03:49:32;;;;;;;11.07;2.90;;;15.50;99.90;;;;;;6302336;22;20007;-84
2023/07/17 03:51:58;;;;;;;8.35;1.90;;;15.50;99.90;;;;;;6302831;22;20022;-84
2023/07/17 03:54:24;;;;;;;8.27;2.58;;;15.50;99.90;;;;;;6249504;22;20030;-84
2023/07/17 03:56:50;;;;;;;8.30;2.33;;;15.40;99.90;;;;;;6275060;22;20443;-84
2023/07/17 03:59:15;;;;;;;13.65;3.10;;;15.40;99.90;;;;;;6302815;22;20015;-84
2023/07/17 04:01:41;;;;;;;11.93;2.20;;;15.40;99.90;;;;;;6274783;22;20023;-84
2023/07/17 04:04:07;;;;;;;11.55;2.88;;;15.40;99.90;;;;;;6302215;22;20026;-84
2023/07/17 04:06:33;;;;;;;9.00;2.05;;;15.30;99.90;;;;;;6302726;22;20050;-84
2023/07/17 04:08:58;;;;;;;6.03;1.88;;;15.20;99.90;;;;;;6274745;22;20026;-85
2023/07/17 04:11:24;;;;;;;11.85;3.10;;;15.30;99.90;;;;;;6275323;22;20090;-85
2023/07/17 04:13:52;;;;;;;10.20;2.50;;;15.30;99.90;;;;;;6275880;22;20129;-84
2023/07/17 04:16:20;;;;;;;8.10;2.10;;;15.30;99.90;;;;;;6302819;22;20011;-84
2023/07/17 04:18:46;;;;;;;14.18;3.17;;;15.30;99.90;;;;;;6275193;22;20350;-85
2023/07/17 04:21:12;;;;;;;10.45;2.30;;;15.30;99.90;;;;;;6274840;22;20016;-84
2023/07/17 04:23:37;;;;;;;8.70;2.42;;;15.30;99.90;;;;;;6303387;22;20025;-84
2023/07/17 04:26:03;;;;;;;13.70;2.95;;;15.30;99.90;;;;;;6274817;22;20026;-84
2023/07/17 04:28:29;;;;;;;9.52;2.33;;;15.20;99.90;;;;;;6250213;22;20106;-85
2023/07/17 04:30:55;;;;;;;9.07;2.22;;;15.30;99.90;;;;;;6275190;22;20042;-85
2023/07/17 04:33:21;;;;;;;9.82;2.70;;;15.30;99.90;;;;;;6250355;22;20027;-84
2023/07/17 04:35:47;;;;;;;7.32;2.17;;;15.40;99.90;;;;;;6274253;22;20015;-84
2023/07/17 04:38:13;;;;;;;9.00;1.98;;;15.30;99.90;;;;;;6273882;22;20170;-84
2023/07/17 04:40:38;;;;;;;6.97;2.60;;;15.40;99.90;;;;;;6275407;22;20413;-84
2023/07/17 04:43:04;;;;;;;8.63;2.72;;;15.30;99.90;;;;;;6271661;22;20076;-84
2023/07/17 04:45:30;;;;;;;10.68;2.58;;;15.40;99.90;;;;;;6299313;22;20414;-84
2023/07/17 04:47:55;;;;;;;9.32;2.47;;;15.40;99.90;;;;;;6301426;22;20092;-84
2023/07/17 04:50:28;;;;;;;10.48;2.40;;;15.40;99.90;;;;;;6302045;22;20017;-84
2023/07/17 04:52:54;;;;;;;10.20;2.20;;;15.40;99.90;;;;;;6274082;22;20012;-84
2023/07/17 04:55:22;;;;;;;11.43;2.63;;;15.40;99.90;;;;;;6275093;22;20033;-86
2023/07/17 04:57:48;;;;;;;7.03;2.42;;;15.40;99.90;;;;;;6279919;22;20019;-85
2023/07/17 05:00:15;;;;;;;11.70;2.95;;;15.40;99.90;;;;;;6276607;22;20109;-83
2023/07/17 05:02:40;;;;;;;8.80;2.60;;;15.50;99.90;;;;;;6274559;22;20020;-83
2023/07/17 05:05:06;;;;;;;10.60;3.10;;;15.50;99.90;;;;;;6302659;22;20015;-84
2023/07/17 05:07:32;;;;;;;9.35;2.38;;;15.50;99.90;;;;;;6276620;22;20136;-84
2023/07/17 05:09:58;;;;;;;9.80;2.88;;;15.50;99.90;;;;;;6276021;22;20023;-84
2023/07/17 05:12:23;;;;;;;8.57;2.30;;;15.50;99.90;;;;;;6274256;22;20378;-84
2023/07/17 05:14:49;;;;;;;6.35;2.70;;;15.50;99.90;;;;;;6304171;22;20011;-82
2023/07/17 05:17:15;;;;;;;14.88;3.63;;;15.50;99.90;;;;;;6276011;22;20424;-84
2023/07/17 05:19:40;;;;;;;10.25;2.65;;;15.60;99.90;;;;;;6252438;22;20043;-86
2023/07/17 05:22:06;;;;;;;8.07;2.45;;;15.50;99.90;;;;;;6279377;22;20019;-85
2023/07/17 05:24:32;;;;;;;10.68;3.00;;;15.60;99.90;;;;;;6276643;22;20409;-85
2023/07/17 05:27:05;;;;;;;9.00;2.88;;;15.60;99.90;;;;;;6303041;22;20015;-84
2023/07/17 05:29:30;;;;;;;11.18;2.92;;;15.60;99.90;;;;;;6275157;22;20078;-85
2023/07/17 05:31:56;;;;;;;12.43;3.03;;;15.80;99.90;;;;;;6274452;22;20482;-84
2023/07/17 05:34:24;;;;;;;10.20;2.78;;;15.80;99.90;;;;;;6274553;22;20015;-85
2023/07/17 05:36:50;;;;;;;10.52;2.58;;;15.70;99.90;;;;;;6274077;22;20299;-86
2023/07/17 05:39:16;;;;;;;10.05;2.42;;;15.80;99.90;;;;;;6274902;22;20012;-83
2023/07/17 05:41:41;;;;;;;9.30;2.95;;;15.80;99.90;;;;;;6300950;22;20018;-84
2023/07/17 05:44:07;;;;;;;16.08;3.60;;;15.90;99.90;;;;;;6274640;22;20334;-85
2023/07/17 05:46:33;;;;;;;8.00;2.80;;;15.80;99.90;;;;;;6275129;22;20015;-84
2023/07/17 05:48:58;;;;;;;11.13;3.45;;;15.90;99.90;;;;;;6273919;22;20007;-84
2023/07/17 05:51:24;;;;;;;13.07;3.33;;;15.90;99.90;;;;;;6274392;22;20444;-85
2023/07/17 05:53:50;;;;;;;13.68;3.33;;;15.90;99.90;;;;;;6277892;22;20008;-86
2023/07/17 05:56:15;;;;;;;16.20;3.67;;;15.90;99.90;;;;;;6302662;22;20365;-84
2023/07/17 05:58:41;;;;;;;11.25;3.17;;;16.00;99.90;;;;;;6301525;22;20025;-85
2023/07/17 06:01:07;;;;;;;13.63;3.20;;;16.00;99.90;;;;;;6303972;22;20026;-85
2023/07/17 06:03:33;;;;;;;9.25;3.20;;;16.10;99.90;;;;;;6275897;22;20026;-85
2023/07/17 06:05:58;;;;;;;8.77;2.80;;;16.10;99.90;;;;;;6301294;22;20011;-86
2023/07/17 06:08:24;;;;;;;14.10;3.63;;;16.20;99.90;;;;;;6275976;22;20015;-87
2023/07/17 06:10:50;;;;;;;11.23;3.28;;;16.20;99.90;;;;;;6277898;22;20074;-86
2023/07/17 06:13:16;;;;;;;11.73;3.60;;;16.20;99.90;;;;;;6275376;22;20426;-86
2023/07/17 06:15:43;;;;;;;11.32;3.95;;;16.20;99.90;;;;;;6276543;22;20446;-86
2023/07/17 06:18:08;;;;;;;10.88;2.78;;;16.20;99.90;;;;;;6303721;22;20447;-86
2023/07/17 06:20:34;;;;;;;11.50;3.72;;;16.20;99.90;;;;;;6251735;22;20122;-86
2023/07/17 06:23:00;;;;;;;13.63;3.45;;;16.30;99.90;;;;;;6275955;22;20028;-86
2023/07/17 06:25:26;;;;;;;13.77;3.50;;;16.30;99.90;;;;;;6276729;22;20011;-85
2023/07/17 06:27:52;;;;;;;10.48;3.63;;;16.30;99.90;;;;;;6275894;22;20122;-86
2023/07/17 06:30:18;;;;;;;11.38;3.63;;;16.40;99.90;;;;;;6305130;22;20007;-87
2023/07/17 06:32:44;;;;;;;10.38;3.50;;;16.40;99.90;;;;;;6304793;22;20030;-86
2023/07/17 06:35:10;;;;;;;10.25;3.38;;;16.50;99.90;;;;;;6276839;22;20019;-86
2023/07/17 06:37:36;;;;;;;10.13;3.70;;;16.50;99.90;;;;;;6303448;22;20011;-87
2023/07/17 06:40:04;;;;;;;11.18;3.40;;;16.50;99.90;;;;;;6277487;22;20023;-87
2023/07/17 06:42:30;;;;;;;9.50;4.03;;;16.60;99.90;;;;;;6251490;22;20015;-86
2023/07/17 06:44:56;;;;;;;9.65;3.00;;;16.70;99.90;;;;;;6276795;22;20015;-86
2023/07/17 06:47:21;;;;;;;12.48;3.50;;;16.80;99.90;;;;;;6277394;22;20076;-89
2023/07/17 06:49:47;;;;;;;14.50;3.95;;;16.90;99.90;;;;;;6304599;22;20269;-86
2023/07/17 06:52:13;;;;;;;12.30;3.85;;;16.90;99.90;;;;;;6303021;22;20019;-86
2023/07/17 06:54:39;;;;;;;10.27;3.08;;;16.90;99.90;;;;;;6277332;22;20015;-86
2023/07/17 06:57:05;;;;;;;15.88;3.72;;;17.00;99.90;;;;;;6276005;22;20045;-86
2023/07/17 06:59:31;;;;;;;12.80;3.83;;;17.00;99.90;;;;;;6303285;22;20061;-85
2023/07/17 07:01:58;;;;;;;12.65;3.95;;;17.00;99.90;;;;;;6275894;22;20328;-85
2023/07/17 07:04:23;;;;;;;14.98;4.40;;;17.10;99.90;;;;;;6276608;22;20057;-87
2023/07/17 07:06:49;;;;;;;14.93;4.70;;;17.10;99.90;;;;;;6305461;22;20386;-84
2023/07/17 07:09:15;;;;;;;15.27;4.53;;;17.20;99.90;;;;;;6277169;22;20011;-87
2023/07/17 07:11:40;;;;;;;13.02;3.90;;;17.20;99.90;;;;;;6305529;22;20095;-87
2023/07/17 07:14:06;;;;;;;16.08;3.78;;;17.30;99.90;;;;;;6278178;22;20043;-87
2023/07/17 07:16:32;;;;;;;11.63;3.63;;;17.40;99.90;;;;;;6277850;22;20019;-89
2023/07/17 07:18:57;;;;;;;11.10;3.50;;;17.40;99.90;;;;;;6305895;22;20039;-89
2023/07/17 07:21:23;;;;;;;11.85;4.03;;;17.50;99.90;;;;;;6306031;22;20051;-89
2023/07/17 07:23:49;;;;;;;11.55;3.95;;;17.60;99.90;;;;;;6278361;22;20436;-88
2023/07/17 07:26:14;;;;;;;10.05;3.63;;;17.70;99.90;;;;;;6304980;22;20481;-88
2023/07/17 07:28:40;;;;;;;14.85;4.97;;;17.70;99.90;;;;;;6277925;22;20019;-88
2023/07/17 07:31:06;;;;;;;9.70;3.67;;;17.90;99.90;;;;;;6278029;22;20460;-88
2023/07/17 07:33:31;;;;;;;11.07;4.00;;;18.10;99.90;;;;;;6252673;22;20098;-88
2023/07/17 07:35:57;;;;;;;12.45;4.07;;;18.20;99.90;;;;;;6251744;22;20014;-89
2023/07/17 07:38:23;;;;;;;16.50;4.60;;;18.30;99.90;;;;;;6278162;22;20015;-88
2023/07/17 07:40:49;;;;;;;8.77;3.45;;;18.30;99.90;;;;;;6277561;22;20019;-88
2023/07/17 07:43:15;;;;;;;10.52;3.47;;;18.40;99.90;;;;;;6252158;22;20042;-89
2023/07/17 07:45:41;;;;;;;10.40;3.80;;;18.50;99.90;;;;;;6278571;22;20094;-88
2023/07/17 07:48:06;;;;;;;12.85;4.05;;;18.70;99.90;;;;;;6252001;22;20086;-88
2023/07/17 07:50:32;;;;;;;15.98;4.32;;;18.90;99.90;;;;;;6252578;22;20003;-88
2023/07/17 07:52:57;;;;;;;13.60;3.47;;;18.90;99.90;;;;;;6277294;22;20011;-89
2023/07/17 07:55:23;;;;;;;10.38;3.92;;;18.90;99.90;;;;;;6251751;22;20007;-88
2023/07/17 07:57:50;;;;;;;10.02;4.00;;;18.80;99.90;;;;;;6305364;22;20011;-88
2023/07/17 08:00:16;;;;;;;12.98;4.18;;;18.90;99.90;;;;;;6277401;22;20011;-88
2023/07/17 08:02:41;;;;;;;12.60;3.88;;;19.10;99.90;;;;;;6278010;22;20062;-88
2023/07/17 08:05:09;;;;;;;10.05;3.33;;;19.20;99.90;;;;;;6277670;22;20435;-88
2023/07/17 08:07:34;;;;;;;15.05;4.63;;;19.10;99.90;;;;;;6277736;22;20099;-88
2023/07/17 08:10:00;;;;;;;14.75;4.90;;;18.90;99.90;;;;;;6277003;22;20039;-88
2023/07/17 08:12:26;;;;;;;15.35;5.10;;;18.70;99.90;;;;;;6305746;22;20015;-88
2023/07/17 08:14:53;;;;;;;10.52;3.97;;;18.40;99.90;;;;;;6277974;22;20102;-88
2023/07/17 08:17:18;;;;;;;14.48;4.63;;;18.20;99.90;;;;;;6277442;22;20027;-88
2023/07/17 08:19:44;;;;;;;14.55;4.90;;;18.00;99.90;;;;;;6305295;22;20126;-88
2023/07/17 08:22:10;;;;;;;15.63;6.03;;;18.00;99.90;;;;;;6306248;22;20026;-87
2023/07/17 08:24:35;;;;;;;14.88;4.88;;;17.90;99.90;;;;;;6279048;22;20015;-89
2023/07/17 08:27:01;;;;;;;13.93;5.00;;;18.00;99.90;;;;;;6253521;22;20481;-88
2023/07/17 08:29:27;;;;;;;17.40;5.20;;;18.10;99.90;;;;;;6307561;22;20043;-88
2023/07/17 08:31:53;;;;;;;14.98;4.75;;;18.20;99.90;;;;;;6279228;22;20015;-88
2023/07/17 08:34:20;;;;;;;14.38;5.28;;;18.30;99.90;;;;;;6279575;22;20426;-88
2023/07/17 08:36:46;;;;;;;15.35;4.72;;;18.50;99.90;;;;;;6279570;22;20011;-88
2023/07/17 08:39:12;;;;;;;13.38;5.20;;;18.70;99.90;;;;;;6306279;22;20017;-88
2023/07/17 08:41:41;;;;;;;13.52;4.80;;;18.90;99.90;;;;;;6280103;22;20086;-88
2023/07/17 08:44:07;;;;;;;12.15;4.20;;;19.10;99.90;;;;;;6253789;22;20060;-89
2023/07/17 08:46:33;;;;;;;14.05;4.47;;;19.00;99.90;;;;;;6279515;22;20042;-88
2023/07/17 08:49:01;;;;;;;10.77;3.47;;;19.00;99.90;;;;;;6253510;22;20172;-88
2023/07/17 08:51:28;;;;;;;13.73;4.18;;;18.90;99.90;;;;;;6279821;22;20090;-88
2023/07/17 08:53:56;;;;;;;17.35;4.53;;;18.80;99.90;;;;;;6305720;22;20357;-90
2023/07/17 08:56:22;;;;;;;9.93;3.33;;;18.60;99.90;;;;;;6307660;22;20015;-90
2023/07/17 08:58:51;;;;;;;11.27;3.40;;;18.50;99.90;;;;;;6306959;22;20378;-90
2023/07/17 09:01:17;;;;;;;7.90;3.70;;;18.40;99.90;;;;;;6253409;22;20018;-90
2023/07/17 09:03:43;;;;;;;9.70;4.07;;;18.40;99.90;;;;;;6307388;22;20012;-92
2023/07/17 09:06:13;;;;;;;10.65;3.53;;;18.40;99.90;;;;;;6279961;22;20018;-91
2023/07/17 09:08:39;;;;;;;8.75;3.22;;;18.50;99.90;;;;;;6279148;22;20011;-90
2023/07/17 09:11:08;;;;;;;10.88;3.88;;;18.50;99.90;;;;;;6306605;22;20017;-88
2023/07/17 09:13:38;;;;;;;10.70;3.70;;;18.50;99.90;;;;;;6254052;22;20037;-88
2023/07/17 09:16:23;;;;;;;7.72;2.92;;;18.40;99.90;;;;;;6279210;22;20086;-88
2023/07/17 09:18:51;;;;;;;11.38;3.10;;;18.30;99.90;;;;;;6279016;22;20067;-89
2023/07/17 09:21:20;;;;;;;7.13;2.80;;;18.30;99.90;;;;;;6305776;22;20015;-90
2023/07/17 09:23:54;;;;;;;6.72;3.05;;;18.30;99.90;;;;;;6253053;22;20019;-86
2023/07/17 09:26:22;;;;;;;12.02;2.78;;;18.40;99.90;;;;;;6306937;22;20063;-90
2023/07/17 09:28:58;;;;;;;5.75;2.55;;;18.60;99.90;;;;;;6306683;22;20327;-89
2023/07/17 09:31:31;;;;;;;6.22;2.47;;;18.80;99.90;;;;;;6278933;22;20090;-89
2023/07/17 09:33:59;;;;;;;8.65;2.58;;;19.00;99.90;;;;;;6306060;22;20009;-88
2023/07/17 09:36:25;;;;;;;6.00;2.30;;;19.10;99.90;;;;;;6278597;22;20007;-88
2023/07/17 09:38:56;;;;;;;5.85;2.30;;;19.30;99.90;;;;;;6308008;22;20126;-91
2023/07/17 09:41:28;;;;;;;7.43;1.92;;;19.40;99.90;;;;;;6308087;22;20015;-91
2023/07/17 09:44:00;;;;;;;12.65;2.20;;;19.50;99.90;;;;;;6307689;22;20078;-91
2023/07/17 09:46:29;;;;;;;7.43;2.50;;;19.50;99.90;;;;;;6307868;22;20090;-92
2023/07/17 09:48:56;;;;;;;7.57;2.47;;;19.40;99.90;;;;;;6279848;22;20011;-93
2023/07/17 09:51:23;;;;;;;8.52;2.45;;;19.50;99.90;;;;;;6307430;22;20011;-91
2023/07/17 09:53:48;;;;;;;7.30;2.40;;;19.60;99.90;;;;;;6279893;22;20427;-92
2023/07/17 09:56:16;;;;;;;8.73;2.63;;;19.70;99.90;;;;;;6307128;22;20019;-92
2023/07/17 09:58:47;;;;;;;5.53;2.22;;;19.60;99.90;;;;;;6280081;22;20466;-92
2023/07/17 10:01:19;;;;;;;7.38;2.30;;;19.50;99.90;;;;;;6279505;22;20011;-92
2023/07/17 10:03:46;;;;;;;9.43;2.60;;;19.50;99.90;;;;;;6253563;22;20031;-92
2023/07/17 10:06:14;;;;;;;10.05;3.30;;;19.40;99.90;;;;;;6277462;22;20453;-83
2023/07/17 10:08:44;;;;;;;9.38;2.88;;;19.40;99.90;;;;;;6251036;22;20053;-87
2023/07/17 10:11:09;;;;;;;6.40;2.50;;;19.60;99.90;;;;;;6251623;22;20072;-84
2023/07/17 10:13:35;;;;;;;6.63;2.53;;;19.80;99.90;;;;;;6303945;22;20003;-82
2023/07/17 10:16:01;;;;;;;10.30;2.28;;;20.00;99.90;;;;;;6303619;22;20011;-84
2023/07/17 10:18:29;;;;;;;7.68;2.42;;;20.10;99.90;;;;;;6250858;22;20069;-84
2023/07/17 10:20:56;;;;;;;7.90;1.85;;;20.10;99.90;;;;;;6302254;22;20016;-83
2023/07/17 10:23:26;;;;;;;6.75;1.70;;;20.20;99.90;;;;;;6276087;22;20465;-83
2023/07/17 10:26:06;;;;;;;7.85;2.88;;;20.20;99.90;;;;;;6275609;22;20080;-83
2023/07/17 10:28:34;;;;;;;8.02;2.50;;;20.30;99.90;;;;;;6272293;22;20022;-84
2023/07/17 10:31:30;;;;;;;11.52;2.22;;;20.40;99.90;;;;;;6276118;22;20090;-83
2023/07/17 10:34:03;;;;;;;7.93;2.63;;;20.40;99.90;;;;;;6276309;22;20007;-84
2023/07/17 10:36:45;;;;;;;11.13;2.15;;;20.50;99.90;;;;;;6276371;22;20015;-84
2023/07/17 10:39:18;;;;;;;7.57;2.00;;;20.70;99.90;;;;;;6276035;22;20053;-83
2023/07/17 10:41:44;;;;;;;6.18;2.05;;;20.80;99.90;;;;;;6276484;22;20026;-83
2023/07/17 10:44:19;;;;;;;7.60;1.65;;;20.90;99.90;;;;;;6275524;22;20100;-83
2023/07/17 10:46:45;;;;;;;7.15;1.70;;;20.80;99.90;;;;;;6276555;22;20015;-83
2023/07/17 10:49:13;;;;;;;11.07;2.00;;;20.80;99.90;;;;;;6275471;22;20011;-83
2023/07/17 10:51:43;;;;;;;9.73;2.00;;;21.00;99.90;;;;;;6275932;22;20015;-83
2023/07/17 10:54:08;;;;;;;7.93;2.15;;;21.10;99.90;;;;;;6275301;22;20027;-84
2023/07/17 10:56:34;;;;;;;5.13;2.15;;;21.10;99.90;;;;;;6276303;22;20014;-84
2023/07/17 10:59:00;;;;;;;7.25;1.95;;;21.30;99.90;;;;;;6274256;22;20021;-83
2023/07/17 11:01:26;;;;;;;5.60;1.92;;;21.30;99.90;;;;;;6248545;22;20020;-83
2023/07/17 11:03:53;;;;;;;5.25;1.92;;;21.30;99.90;;;;;;6275828;22;20082;-83
2023/07/17 11:06:19;;;;;;;6.05;2.20;;;21.40;99.90;;;;;;6300937;22;20007;-83
2023/07/17 11:08:49;;;;;;;6.00;2.08;;;21.40;99.90;;;;;;6250311;22;20022;-84
2023/07/17 11:11:15;;;;;;;5.85;1.90;;;21.60;99.90;;;;;;6275492;22;20019;-86
2023/07/17 11:13:48;;;;;;;5.47;2.15;;;21.70;99.90;;;;;;6251366;22;20014;-85
2023/07/17 11:16:14;;;;;;;5.18;1.77;;;22.00;99.90;;;;;;6250134;22;20478;-85
2023/07/17 11:18:57;;;;;;;5.00;1.70;;;22.10;99.90;;;;;;6275876;22;20023;-85
2023/07/17 11:21:25;;;;;;;4.27;1.57;;;22.30;98.90;;;;;;6304117;22;20015;-85
2023/07/17 11:23:57;;;;;;;6.32;1.70;;;22.30;98.60;;;;;;6276489;22;20007;-85
2023/07/17 11:26:28;;;;;;;8.55;1.48;;;22.40;98.60;;;;;;6250828;22;20091;-84
2023/07/17 11:28:56;;;;;;;6.30;2.03;;;22.40;98.80;;;;;;6276496;22;20016;-85
2023/07/17 11:31:33;;;;;;;7.53;2.20;;;22.50;98.60;;;;;;6276213;22;20017;-84
2023/07/17 11:34:12;;;;;;;7.30;1.95;;;22.50;98.70;;;;;;6276854;22;20011;-85
2023/07/17 11:36:46;;;;;;;7.60;1.90;;;22.40;99.00;;;;;;6276704;22;20007;-86
2023/07/17 11:39:18;;;;;;;6.28;2.35;;;22.40;99.30;;;;;;6275834;22;20026;-85
2023/07/17 11:41:49;;;;;;;9.23;1.95;;;22.40;99.40;;;;;;6274517;22;20046;-85
2023/07/17 11:44:20;;;;;;;4.70;1.83;;;22.40;98.80;;;;;;6272972;22;20015;-84
2023/07/17 11:46:46;;;;;;;9.45;2.03;;;22.30;99.30;;;;;;6249317;22;20014;-92
2023/07/17 11:49:13;;;;;;;9.95;1.95;;;22.40;98.80;;;;;;6304806;22;20580;-89
2023/07/17 11:51:42;;;;;;;7.63;1.85;;;22.40;97.70;;;;;;6251435;22;20007;-87
2023/07/17 11:54:08;;;;;;;12.48;2.00;;;22.40;98.30;;;;;;6304803;22;20011;-88
2023/07/17 11:56:35;;;;;;;6.25;1.50;;;22.40;97.60;;;;;;6276824;22;20525;-89
2023/07/17 11:59:02;;;;;;;8.02;2.20;;;22.30;98.20;;;;;;6251431;22;20429;-89
2023/07/17 12:01:27;;;;;;;6.50;1.58;;;22.30;98.80;;;;;;6252310;22;20012;-88
2023/07/17 12:03:53;;;;;;;5.97;2.03;;;22.40;99.00;;;;;;6278006;22;20014;-89
2023/07/17 12:06:19;;;;;;;5.13;1.90;;;22.40;99.30;;;;;;6278338;22;20011;-89
2023/07/17 12:08:46;;;;;;;8.07;1.80;;;22.60;99.30;;;;;;6252240;22;20016;-89
2023/07/17 12:11:12;;;;;;;5.55;1.55;;;22.70;98.50;;;;;;6305879;22;20011;-89
2023/07/17 12:13:38;;;;;;;4.85;1.50;;;22.80;98.70;;;;;;6255489;22;20014;-93
2023/07/17 12:16:04;;;;;;;6.00;1.88;;;22.90;98.60;;;;;;6308381;22;20016;-92
2023/07/17 12:18:30;;;;;;;7.03;1.88;;;22.90;98.90;;;;;;6308744;22;20450;-92
2023/07/17 12:20:56;;;;;;;5.55;1.70;;;22.80;99.40;;;;;;6309458;22;20070;-90
2023/07/17 12:23:23;;;;;;;4.43;1.30;;;22.90;98.90;;;;;;6279346;22;20498;-90
2023/07/17 12:25:49;;;;;;;4.57;1.52;;;23.00;99.00;;;;;;6279231;22;20086;-91
2023/07/17 12:28:15;;;;;;;5.60;1.58;;;23.10;98.70;;;;;;6254070;22;20075;-91
2023/07/17 12:30:41;;;;;;;4.50;1.30;;;23.20;98.10;;;;;;6278976;22;20034;-92
2023/07/17 12:33:07;;;;;;;5.38;1.30;;;23.20;97.70;;;;;;6304068;22;20038;-90
2023/07/17 12:35:33;;;;;;;5.78;1.35;;;23.30;95.90;;;;;;6275607;22;20069;-84
2023/07/17 12:37:58;;;;;;;3.83;1.50;;;23.20;96.40;;;;;;6273761;22;20047;-84
2023/07/17 12:40:24;;;;;;;5.85;1.58;;;23.20;96.80;;;;;;6274940;22;20106;-84
2023/07/17 12:42:50;;;;;;;4.13;1.40;;;23.20;96.60;;;;;;6275155;22;20015;-85